sensor_id;sensor_type;location;lat;lon;timestamp;temperature;humidity
27072;DHT22;14613;46.308;25.288;2023-03-01T00:01:59;5.40;81.90
27072;DHT22;14613;46.308;25.288;2023-03-01T00:04:25;5.40;81.80
27072;DHT22;14613;46.308;25.288;2023-03-01T00:06:51;5.40;81.90
27072;DHT22;14613;46.308;25.288;2023-03-01T00:09:17;5.30;82.00
27072;DHT22;14613;46.308;25.288;2023-03-01T00:11:43;5.30;82.20
27072;DHT22;14613;46.308;25.288;2023-03-01T00:14:09;5.30;82.30
27072;DHT22;14613;46.308;25.288;2023-03-01T00:16:40;5.30;82.40
27072;DHT22;14613;46.308;25.288;2023-03-01T00:19:08;5.40;82.40
27072;DHT22;14613;46.308;25.288;2023-03-01T00:21:35;5.40;82.50
27072;DHT22;14613;46.308;25.288;2023-03-01T00:24:02;5.40;82.50
27072;DHT22;14613;46.308;25.288;2023-03-01T00:26:28;5.40;82.50
27072;DHT22;14613;46.308;25.288;2023-03-01T00:28:54;5.40;82.50
27072;DHT22;14613;46.308;25.288;2023-03-01T00:31:26;5.40;82.50
27072;DHT22;14613;46.308;25.288;2023-03-01T00:34:00;5.50;82.70
27072;DHT22;14613;46.308;25.288;2023-03-01T00:36:29;5.50;82.70
27072;DHT22;14613;46.308;25.288;2023-03-01T00:38:55;5.50;82.70
27072;DHT22;14613;46.308;25.288;2023-03-01T00:41:22;5.60;82.70
27072;DHT22;14613;46.308;25.288;2023-03-01T00:43:49;5.60;82.70
27072;DHT22;14613;46.308;25.288;2023-03-01T00:46:17;5.60;82.70
27072;DHT22;14613;46.308;25.288;2023-03-01T00:48:44;5.70;82.70
27072;DHT22;14613;46.308;25.288;2023-03-01T00:51:18;5.70;82.70
27072;DHT22;14613;46.308;25.288;2023-03-01T00:53:45;5.70;82.70
27072;DHT22;14613;46.308;25.288;2023-03-01T00:56:14;5.70;82.70
27072;DHT22;14613;46.308;25.288;2023-03-01T00:58:40;5.70;82.70
27072;DHT22;14613;46.308;25.288;2023-03-01T01:01:14;5.80;82.80
27072;DHT22;14613;46.308;25.288;2023-03-01T01:03:51;5.80;82.70
27072;DHT22;14613;46.308;25.288;2023-03-01T01:06:37;5.80;82.70
27072;DHT22;14613;46.308;25.288;2023-03-01T01:09:06;5.80;82.70
27072;DHT22;14613;46.308;25.288;2023-03-01T01:11:32;5.90;82.70
27072;DHT22;14613;46.308;25.288;2023-03-01T01:14:00;5.90;82.70
27072;DHT22;14613;46.308;25.288;2023-03-01T01:16:27;5.90;82.70
27072;DHT22;14613;46.308;25.288;2023-03-01T01:18:54;5.90;82.70
27072;DHT22;14613;46.308;25.288;2023-03-01T01:21:23;5.90;82.70
27072;DHT22;14613;46.308;25.288;2023-03-01T01:23:49;6.00;82.70
27072;DHT22;14613;46.308;25.288;2023-03-01T01:26:29;6.00;82.70
27072;DHT22;14613;46.308;25.288;2023-03-01T01:28:56;6.00;82.70
27072;DHT22;14613;46.308;25.288;2023-03-01T01:31:23;6.00;82.80
27072;DHT22;14613;46.308;25.288;2023-03-01T01:33:50;6.00;82.80
27072;DHT22;14613;46.308;25.288;2023-03-01T01:36:16;6.10;82.80
27072;DHT22;14613;46.308;25.288;2023-03-01T01:38:42;6.10;82.80
27072;DHT22;14613;46.308;25.288;2023-03-01T01:41:09;6.10;82.80
27072;DHT22;14613;46.308;25.288;2023-03-01T01:43:48;6.10;82.80
27072;DHT22;14613;46.308;25.288;2023-03-01T01:46:32;6.10;82.80
27072;DHT22;14613;46.308;25.288;2023-03-01T01:49:16;6.20;82.90
27072;DHT22;14613;46.308;25.288;2023-03-01T01:51:45;6.20;82.80
27072;DHT22;14613;46.308;25.288;2023-03-01T01:54:24;6.20;82.80
27072;DHT22;14613;46.308;25.288;2023-03-01T01:56:59;6.20;82.90
27072;DHT22;14613;46.308;25.288;2023-03-01T01:59:28;6.20;82.80
27072;DHT22;14613;46.308;25.288;2023-03-01T02:02:00;6.30;82.90
27072;DHT22;14613;46.308;25.288;2023-03-01T02:04:26;6.30;82.90
27072;DHT22;14613;46.308;25.288;2023-03-01T02:07:15;6.30;82.80
27072;DHT22;14613;46.308;25.288;2023-03-01T02:09:45;6.30;82.80
27072;DHT22;14613;46.308;25.288;2023-03-01T02:12:11;6.30;82.80
27072;DHT22;14613;46.308;25.288;2023-03-01T02:14:38;6.40;82.80
27072;DHT22;14613;46.308;25.288;2023-03-01T02:17:03;6.40;82.80
27072;DHT22;14613;46.308;25.288;2023-03-01T02:22:28;6.40;82.80
27072;DHT22;14613;46.308;25.288;2023-03-01T02:25:51;6.40;82.70
27072;DHT22;14613;46.308;25.288;2023-03-01T02:30:33;6.50;82.70
27072;DHT22;14613;46.308;25.288;2023-03-01T02:33:01;6.40;82.60
27072;DHT22;14613;46.308;25.288;2023-03-01T02:35:37;6.50;82.60
27072;DHT22;14613;46.308;25.288;2023-03-01T02:38:06;6.50;82.50
27072;DHT22;14613;46.308;25.288;2023-03-01T02:40:34;6.50;82.50
27072;DHT22;14613;46.308;25.288;2023-03-01T02:43:03;6.50;82.50
27072;DHT22;14613;46.308;25.288;2023-03-01T02:45:30;6.50;82.40
27072;DHT22;14613;46.308;25.288;2023-03-01T02:47:57;6.50;82.40
27072;DHT22;14613;46.308;25.288;2023-03-01T02:50:45;6.50;82.40
27072;DHT22;14613;46.308;25.288;2023-03-01T02:53:21;6.50;82.40
27072;DHT22;14613;46.308;25.288;2023-03-01T02:55:48;6.50;82.40
27072;DHT22;14613;46.308;25.288;2023-03-01T02:58:15;6.50;82.40
27072;DHT22;14613;46.308;25.288;2023-03-01T03:00:42;6.50;82.30
27072;DHT22;14613;46.308;25.288;2023-03-01T03:03:19;6.50;82.30
27072;DHT22;14613;46.308;25.288;2023-03-01T03:05:45;6.50;82.40
27072;DHT22;14613;46.308;25.288;2023-03-01T03:08:11;6.40;82.40
27072;DHT22;14613;46.308;25.288;2023-03-01T03:10:40;6.40;82.40
27072;DHT22;14613;46.308;25.288;2023-03-01T03:13:14;6.40;82.40
27072;DHT22;14613;46.308;25.288;2023-03-01T03:15:42;6.40;82.40
27072;DHT22;14613;46.308;25.288;2023-03-01T03:18:11;6.30;82.40
27072;DHT22;14613;46.308;25.288;2023-03-01T03:20:38;6.30;82.40
27072;DHT22;14613;46.308;25.288;2023-03-01T03:23:04;6.30;82.50
27072;DHT22;14613;46.308;25.288;2023-03-01T03:25:30;6.30;82.60
27072;DHT22;14613;46.308;25.288;2023-03-01T03:27:57;6.20;82.60
27072;DHT22;14613;46.308;25.288;2023-03-01T03:30:32;6.20;82.70
27072;DHT22;14613;46.308;25.288;2023-03-01T03:32:59;6.20;82.80
27072;DHT22;14613;46.308;25.288;2023-03-01T03:35:30;6.20;82.70
27072;DHT22;14613;46.308;25.288;2023-03-01T03:38:01;6.20;82.80
27072;DHT22;14613;46.308;25.288;2023-03-01T03:40:50;6.20;82.80
27072;DHT22;14613;46.308;25.288;2023-03-01T03:43:22;6.20;82.80
27072;DHT22;14613;46.308;25.288;2023-03-01T03:45:49;6.20;82.70
27072;DHT22;14613;46.308;25.288;2023-03-01T03:48:16;6.20;82.80
27072;DHT22;14613;46.308;25.288;2023-03-01T03:50:48;6.20;82.70
27072;DHT22;14613;46.308;25.288;2023-03-01T03:53:15;6.20;82.70
27072;DHT22;14613;46.308;25.288;2023-03-01T03:55:41;6.20;82.80
27072;DHT22;14613;46.308;25.288;2023-03-01T03:58:09;6.20;82.80
27072;DHT22;14613;46.308;25.288;2023-03-01T04:00:40;6.20;82.80
27072;DHT22;14613;46.308;25.288;2023-03-01T04:03:06;6.20;82.80
27072;DHT22;14613;46.308;25.288;2023-03-01T04:05:32;6.20;82.70
27072;DHT22;14613;46.308;25.288;2023-03-01T04:07:58;6.20;82.70
27072;DHT22;14613;46.308;25.288;2023-03-01T04:10:31;6.30;82.70
27072;DHT22;14613;46.308;25.288;2023-03-01T04:12:57;6.30;82.70
27072;DHT22;14613;46.308;25.288;2023-03-01T04:15:25;6.30;82.70
27072;DHT22;14613;46.308;25.288;2023-03-01T04:17:52;6.30;82.70
27072;DHT22;14613;46.308;25.288;2023-03-01T04:20:26;6.30;82.60
27072;DHT22;14613;46.308;25.288;2023-03-01T04:23:01;6.30;82.60
27072;DHT22;14613;46.308;25.288;2023-03-01T04:25:38;6.30;82.70
27072;DHT22;14613;46.308;25.288;2023-03-01T04:28:04;6.30;82.70
27072;DHT22;14613;46.308;25.288;2023-03-01T04:30:30;6.30;82.70
27072;DHT22;14613;46.308;25.288;2023-03-01T04:33:02;6.30;82.70
27072;DHT22;14613;46.308;25.288;2023-03-01T04:35:29;6.40;82.80
27072;DHT22;14613;46.308;25.288;2023-03-01T04:37:55;6.40;82.80
27072;DHT22;14613;46.308;25.288;2023-03-01T04:40:21;6.40;82.80
27072;DHT22;14613;46.308;25.288;2023-03-01T04:42:47;6.40;82.90
27072;DHT22;14613;46.308;25.288;2023-03-01T04:45:13;6.40;82.80
27072;DHT22;14613;46.308;25.288;2023-03-01T04:47:40;6.40;82.80
27072;DHT22;14613;46.308;25.288;2023-03-01T04:50:07;6.40;82.80
27072;DHT22;14613;46.308;25.288;2023-03-01T04:52:33;6.40;82.80
27072;DHT22;14613;46.308;25.288;2023-03-01T04:54:59;6.50;82.90
27072;DHT22;14613;46.308;25.288;2023-03-01T04:57:25;6.50;82.80
27072;DHT22;14613;46.308;25.288;2023-03-01T04:59:51;6.40;82.80
27072;DHT22;14613;46.308;25.288;2023-03-01T05:02:16;6.50;82.90
27072;DHT22;14613;46.308;25.288;2023-03-01T05:04:42;6.50;82.90
27072;DHT22;14613;46.308;25.288;2023-03-01T05:07:08;6.50;82.90
27072;DHT22;14613;46.308;25.288;2023-03-01T05:09:34;6.50;83.00
27072;DHT22;14613;46.308;25.288;2023-03-01T05:12:00;6.50;83.00
27072;DHT22;14613;46.308;25.288;2023-03-01T05:14:26;6.50;83.00
27072;DHT22;14613;46.308;25.288;2023-03-01T05:16:51;6.50;83.10
27072;DHT22;14613;46.308;25.288;2023-03-01T05:19:17;6.50;83.10
27072;DHT22;14613;46.308;25.288;2023-03-01T05:21:48;6.50;83.20
27072;DHT22;14613;46.308;25.288;2023-03-01T05:24:34;6.50;83.20
27072;DHT22;14613;46.308;25.288;2023-03-01T05:27:01;6.50;83.30
27072;DHT22;14613;46.308;25.288;2023-03-01T05:29:30;6.50;83.30
27072;DHT22;14613;46.308;25.288;2023-03-01T05:31:58;6.60;83.40
27072;DHT22;14613;46.308;25.288;2023-03-01T05:34:29;6.60;83.40
27072;DHT22;14613;46.308;25.288;2023-03-01T05:36:56;6.60;83.40
27072;DHT22;14613;46.308;25.288;2023-03-01T05:39:24;6.60;83.30
27072;DHT22;14613;46.308;25.288;2023-03-01T05:41:59;6.70;83.40
27072;DHT22;14613;46.308;25.288;2023-03-01T05:44:26;6.70;83.30
27072;DHT22;14613;46.308;25.288;2023-03-01T05:46:52;6.70;83.30
27072;DHT22;14613;46.308;25.288;2023-03-01T05:49:18;6.70;83.30
27072;DHT22;14613;46.308;25.288;2023-03-01T05:51:49;6.70;83.30
27072;DHT22;14613;46.308;25.288;2023-03-01T05:54:15;6.70;83.40
27072;DHT22;14613;46.308;25.288;2023-03-01T05:56:41;6.70;83.30
27072;DHT22;14613;46.308;25.288;2023-03-01T05:59:07;6.70;83.40
27072;DHT22;14613;46.308;25.288;2023-03-01T06:01:34;6.80;83.40
27072;DHT22;14613;46.308;25.288;2023-03-01T06:04:00;6.80;83.40
27072;DHT22;14613;46.308;25.288;2023-03-01T06:06:26;6.80;83.40
27072;DHT22;14613;46.308;25.288;2023-03-01T06:08:52;6.80;83.40
27072;DHT22;14613;46.308;25.288;2023-03-01T06:11:19;6.80;83.40
27072;DHT22;14613;46.308;25.288;2023-03-01T06:13:45;6.90;83.50
27072;DHT22;14613;46.308;25.288;2023-03-01T06:16:12;6.90;83.50
27072;DHT22;14613;46.308;25.288;2023-03-01T06:18:38;6.90;83.50
27072;DHT22;14613;46.308;25.288;2023-03-01T06:21:05;6.90;83.50
27072;DHT22;14613;46.308;25.288;2023-03-01T06:23:31;6.90;83.50
27072;DHT22;14613;46.308;25.288;2023-03-01T06:25:57;7.00;83.60
27072;DHT22;14613;46.308;25.288;2023-03-01T06:28:23;7.00;83.60
27072;DHT22;14613;46.308;25.288;2023-03-01T06:30:50;7.00;83.60
27072;DHT22;14613;46.308;25.288;2023-03-01T06:33:17;7.10;83.60
27072;DHT22;14613;46.308;25.288;2023-03-01T06:35:46;7.10;83.60
27072;DHT22;14613;46.308;25.288;2023-03-01T06:38:12;7.20;83.80
27072;DHT22;14613;46.308;25.288;2023-03-01T06:40:40;7.20;83.50
27072;DHT22;14613;46.308;25.288;2023-03-01T06:43:06;7.20;83.40
27072;DHT22;14613;46.308;25.288;2023-03-01T06:45:33;7.20;83.40
27072;DHT22;14613;46.308;25.288;2023-03-01T06:48:06;7.20;83.40
27072;DHT22;14613;46.308;25.288;2023-03-01T06:50:35;7.20;83.40
27072;DHT22;14613;46.308;25.288;2023-03-01T06:53:02;7.20;83.40
27072;DHT22;14613;46.308;25.288;2023-03-01T06:55:28;7.20;83.50
27072;DHT22;14613;46.308;25.288;2023-03-01T06:57:56;7.20;83.50
27072;DHT22;14613;46.308;25.288;2023-03-01T07:00:22;7.20;83.60
27072;DHT22;14613;46.308;25.288;2023-03-01T07:02:48;7.20;83.70
27072;DHT22;14613;46.308;25.288;2023-03-01T07:05:14;7.30;83.70
27072;DHT22;14613;46.308;25.288;2023-03-01T07:07:40;7.30;83.60
27072;DHT22;14613;46.308;25.288;2023-03-01T07:10:06;7.40;83.60
27072;DHT22;14613;46.308;25.288;2023-03-01T07:12:32;7.40;83.50
27072;DHT22;14613;46.308;25.288;2023-03-01T07:14:58;7.50;83.50
27072;DHT22;14613;46.308;25.288;2023-03-01T07:17:24;7.50;83.40
27072;DHT22;14613;46.308;25.288;2023-03-01T07:19:50;7.60;83.40
27072;DHT22;14613;46.308;25.288;2023-03-01T07:22:15;7.60;83.20
27072;DHT22;14613;46.308;25.288;2023-03-01T07:24:42;7.70;83.20
27072;DHT22;14613;46.308;25.288;2023-03-01T07:27:08;7.70;83.10
27072;DHT22;14613;46.308;25.288;2023-03-01T07:29:34;7.80;83.10
27072;DHT22;14613;46.308;25.288;2023-03-01T07:32:03;7.80;83.00
27072;DHT22;14613;46.308;25.288;2023-03-01T07:34:29;7.90;83.10
27072;DHT22;14613;46.308;25.288;2023-03-01T07:36:54;7.90;83.10
27072;DHT22;14613;46.308;25.288;2023-03-01T07:39:21;8.00;83.10
27072;DHT22;14613;46.308;25.288;2023-03-01T07:41:48;8.00;83.00
27072;DHT22;14613;46.308;25.288;2023-03-01T07:44:14;8.10;83.10
27072;DHT22;14613;46.308;25.288;2023-03-01T07:46:41;8.20;83.00
27072;DHT22;14613;46.308;25.288;2023-03-01T07:49:07;8.20;82.90
27072;DHT22;14613;46.308;25.288;2023-03-01T07:51:33;8.30;82.90
27072;DHT22;14613;46.308;25.288;2023-03-01T07:53:59;8.40;82.80
27072;DHT22;14613;46.308;25.288;2023-03-01T07:56:24;8.40;82.80
27072;DHT22;14613;46.308;25.288;2023-03-01T07:58:50;8.50;82.80
27072;DHT22;14613;46.308;25.288;2023-03-01T08:01:18;8.50;82.70
27072;DHT22;14613;46.308;25.288;2023-03-01T08:03:45;8.60;82.70
27072;DHT22;14613;46.308;25.288;2023-03-01T08:06:13;8.60;82.70
27072;DHT22;14613;46.308;25.288;2023-03-01T08:08:39;8.70;82.60
27072;DHT22;14613;46.308;25.288;2023-03-01T08:11:07;8.70;82.50
27072;DHT22;14613;46.308;25.288;2023-03-01T08:13:33;8.80;82.50
27072;DHT22;14613;46.308;25.288;2023-03-01T08:16:08;8.80;82.40
27072;DHT22;14613;46.308;25.288;2023-03-01T08:18:35;8.80;82.40
27072;DHT22;14613;46.308;25.288;2023-03-01T08:21:05;8.80;82.50
27072;DHT22;14613;46.308;25.288;2023-03-01T08:23:32;8.80;82.50
27072;DHT22;14613;46.308;25.288;2023-03-01T08:26:06;8.90;82.50
27072;DHT22;14613;46.308;25.288;2023-03-01T08:28:32;8.90;82.50
27072;DHT22;14613;46.308;25.288;2023-03-01T08:30:58;9.00;82.50
27072;DHT22;14613;46.308;25.288;2023-03-01T08:33:23;9.00;82.30
27072;DHT22;14613;46.308;25.288;2023-03-01T08:35:49;9.10;82.20
27072;DHT22;14613;46.308;25.288;2023-03-01T08:38:15;9.20;82.30
27072;DHT22;14613;46.308;25.288;2023-03-01T08:40:41;9.20;82.30
27072;DHT22;14613;46.308;25.288;2023-03-01T08:43:06;9.30;82.30
27072;DHT22;14613;46.308;25.288;2023-03-01T08:45:32;9.40;82.30
27072;DHT22;14613;46.308;25.288;2023-03-01T08:47:58;9.50;82.20
27072;DHT22;14613;46.308;25.288;2023-03-01T08:50:24;9.50;82.10
27072;DHT22;14613;46.308;25.288;2023-03-01T08:52:50;9.60;82.10
27072;DHT22;14613;46.308;25.288;2023-03-01T08:55:16;9.60;82.10
27072;DHT22;14613;46.308;25.288;2023-03-01T08:57:43;9.70;81.90
27072;DHT22;14613;46.308;25.288;2023-03-01T09:00:10;9.80;81.90
27072;DHT22;14613;46.308;25.288;2023-03-01T09:02:36;9.80;81.90
27072;DHT22;14613;46.308;25.288;2023-03-01T09:05:02;9.90;81.90
27072;DHT22;14613;46.308;25.288;2023-03-01T09:07:28;9.90;81.90
27072;DHT22;14613;46.308;25.288;2023-03-01T09:09:54;10.00;81.90
27072;DHT22;14613;46.308;25.288;2023-03-01T09:12:20;10.00;81.70
27072;DHT22;14613;46.308;25.288;2023-03-01T09:14:46;10.10;81.60
27072;DHT22;14613;46.308;25.288;2023-03-01T09:17:12;10.20;81.60
27072;DHT22;14613;46.308;25.288;2023-03-01T09:19:38;10.20;81.50
27072;DHT22;14613;46.308;25.288;2023-03-01T09:22:04;10.30;81.40
27072;DHT22;14613;46.308;25.288;2023-03-01T09:24:30;10.40;81.50
27072;DHT22;14613;46.308;25.288;2023-03-01T09:26:57;10.50;81.50
27072;DHT22;14613;46.308;25.288;2023-03-01T09:29:23;10.50;81.40
27072;DHT22;14613;46.308;25.288;2023-03-01T09:31:49;10.70;81.40
27072;DHT22;14613;46.308;25.288;2023-03-01T09:34:15;10.70;81.40
27072;DHT22;14613;46.308;25.288;2023-03-01T09:36:44;10.80;81.40
27072;DHT22;14613;46.308;25.288;2023-03-01T09:39:10;10.80;81.20
27072;DHT22;14613;46.308;25.288;2023-03-01T09:44:27;11.00;81.00
27072;DHT22;14613;46.308;25.288;2023-03-01T09:46:55;11.10;80.80
27072;DHT22;14613;46.308;25.288;2023-03-01T09:49:26;11.10;80.70
27072;DHT22;14613;46.308;25.288;2023-03-01T09:54:36;11.10;80.70
27072;DHT22;14613;46.308;25.288;2023-03-01T09:57:15;11.20;80.70
27072;DHT22;14613;46.308;25.288;2023-03-01T10:04:51;11.30;80.00
27072;DHT22;14613;46.308;25.288;2023-03-01T10:09:58;11.30;80.30
27072;DHT22;14613;46.308;25.288;2023-03-01T10:12:35;11.40;80.40
27072;DHT22;14613;46.308;25.288;2023-03-01T10:15:11;11.40;80.40
27072;DHT22;14613;46.308;25.288;2023-03-01T10:17:55;11.40;80.50
27072;DHT22;14613;46.308;25.288;2023-03-01T10:20:28;11.50;80.50
27072;DHT22;14613;46.308;25.288;2023-03-01T10:22:55;11.50;80.50
27072;DHT22;14613;46.308;25.288;2023-03-01T10:28:14;11.60;80.50
27072;DHT22;14613;46.308;25.288;2023-03-01T10:30:42;11.60;80.30
27072;DHT22;14613;46.308;25.288;2023-03-01T10:33:20;11.70;80.20
27072;DHT22;14613;46.308;25.288;2023-03-01T10:35:47;11.70;80.20
27072;DHT22;14613;46.308;25.288;2023-03-01T10:38:15;11.70;80.20
27072;DHT22;14613;46.308;25.288;2023-03-01T10:40:53;11.70;80.40
27072;DHT22;14613;46.308;25.288;2023-03-01T10:43:20;11.70;80.30
27072;DHT22;14613;46.308;25.288;2023-03-01T10:45:47;11.70;80.30
27072;DHT22;14613;46.308;25.288;2023-03-01T10:48:21;11.80;80.10
27072;DHT22;14613;46.308;25.288;2023-03-01T10:51:04;11.90;80.10
27072;DHT22;14613;46.308;25.288;2023-03-01T10:58:28;12.10;79.70
27072;DHT22;14613;46.308;25.288;2023-03-01T11:00:56;12.20;79.60
27072;DHT22;14613;46.308;25.288;2023-03-01T11:06:33;12.40;79.00
27072;DHT22;14613;46.308;25.288;2023-03-01T11:09:23;12.40;79.00
27072;DHT22;14613;46.308;25.288;2023-03-01T11:11:54;12.50;78.90
27072;DHT22;14613;46.308;25.288;2023-03-01T11:14:27;12.60;78.90
27072;DHT22;14613;46.308;25.288;2023-03-01T11:17:04;12.60;78.40
27072;DHT22;14613;46.308;25.288;2023-03-01T11:19:30;12.60;78.00
27072;DHT22;14613;46.308;25.288;2023-03-01T11:22:16;12.60;78.00
27072;DHT22;14613;46.308;25.288;2023-03-01T11:24:49;12.70;78.10
27072;DHT22;14613;46.308;25.288;2023-03-01T11:27:19;12.80;78.20
27072;DHT22;14613;46.308;25.288;2023-03-01T11:30:02;12.80;78.00
27072;DHT22;14613;46.308;25.288;2023-03-01T11:32:40;12.90;77.90
27072;DHT22;14613;46.308;25.288;2023-03-01T11:35:18;12.90;77.70
27072;DHT22;14613;46.308;25.288;2023-03-01T11:40:46;13.00;77.40
27072;DHT22;14613;46.308;25.288;2023-03-01T11:51:54;13.30;76.80
27072;DHT22;14613;46.308;25.288;2023-03-01T11:57:49;13.30;76.50
27072;DHT22;14613;46.308;25.288;2023-03-01T12:03:42;13.40;76.20
27072;DHT22;14613;46.308;25.288;2023-03-01T12:09:02;13.40;76.30
27072;DHT22;14613;46.308;25.288;2023-03-01T12:11:39;13.40;76.20
27072;DHT22;14613;46.308;25.288;2023-03-01T12:14:37;13.40;76.00
27072;DHT22;14613;46.308;25.288;2023-03-01T12:33:22;13.40;76.10
27072;DHT22;14613;46.308;25.288;2023-03-01T12:36:13;13.40;76.10
27072;DHT22;14613;46.308;25.288;2023-03-01T12:41:32;13.40;76.00
27072;DHT22;14613;46.308;25.288;2023-03-01T12:49:56;13.30;76.00
27072;DHT22;14613;46.308;25.288;2023-03-01T12:52:51;13.20;75.70
27072;DHT22;14613;46.308;25.288;2023-03-01T12:55:36;13.10;75.50
27072;DHT22;14613;46.308;25.288;2023-03-01T12:58:16;13.10;75.60
27072;DHT22;14613;46.308;25.288;2023-03-01T13:06:11;13.20;75.40
27072;DHT22;14613;46.308;25.288;2023-03-01T13:08:43;13.10;75.40
27072;DHT22;14613;46.308;25.288;2023-03-01T13:11:22;13.20;75.60
27072;DHT22;14613;46.308;25.288;2023-03-01T13:13:48;13.20;75.50
27072;DHT22;14613;46.308;25.288;2023-03-01T13:16:40;13.20;75.40
27072;DHT22;14613;46.308;25.288;2023-03-01T13:21:40;13.30;76.30
27072;DHT22;14613;46.308;25.288;2023-03-01T13:32:23;13.30;75.20
27072;DHT22;14613;46.308;25.288;2023-03-01T13:34:57;13.20;75.00
27072;DHT22;14613;46.308;25.288;2023-03-01T13:37:34;13.20;75.00
27072;DHT22;14613;46.308;25.288;2023-03-01T13:42:46;13.20;74.80
27072;DHT22;14613;46.308;25.288;2023-03-01T13:48:30;13.20;74.60
27072;DHT22;14613;46.308;25.288;2023-03-01T13:51:03;13.10;74.50
27072;DHT22;14613;46.308;25.288;2023-03-01T13:53:39;13.00;74.20
27072;DHT22;14613;46.308;25.288;2023-03-01T13:56:18;13.00;74.10
27072;DHT22;14613;46.308;25.288;2023-03-01T13:59:04;12.90;74.10
27072;DHT22;14613;46.308;25.288;2023-03-01T14:01:32;12.80;73.90
27072;DHT22;14613;46.308;25.288;2023-03-01T14:03:59;12.60;74.10
27072;DHT22;14613;46.308;25.288;2023-03-01T14:06:29;12.50;74.30
27072;DHT22;14613;46.308;25.288;2023-03-01T14:09:16;12.40;74.40
27072;DHT22;14613;46.308;25.288;2023-03-01T14:20:03;12.40;74.40
27072;DHT22;14613;46.308;25.288;2023-03-01T14:22:34;12.50;74.50
27072;DHT22;14613;46.308;25.288;2023-03-01T14:25:06;12.50;74.50
27072;DHT22;14613;46.308;25.288;2023-03-01T14:27:42;12.50;74.50
27072;DHT22;14613;46.308;25.288;2023-03-01T14:32:41;12.50;74.40
27072;DHT22;14613;46.308;25.288;2023-03-01T14:35:27;12.50;74.30
27072;DHT22;14613;46.308;25.288;2023-03-01T14:37:53;12.50;74.30
27072;DHT22;14613;46.308;25.288;2023-03-01T14:40:27;12.50;74.20
27072;DHT22;14613;46.308;25.288;2023-03-01T14:42:56;12.50;74.30
27072;DHT22;14613;46.308;25.288;2023-03-01T14:45:23;12.50;74.20
27072;DHT22;14613;46.308;25.288;2023-03-01T14:47:50;12.50;74.20
27072;DHT22;14613;46.308;25.288;2023-03-01T14:50:27;12.50;74.10
27072;DHT22;14613;46.308;25.288;2023-03-01T14:53:02;12.50;74.00
27072;DHT22;14613;46.308;25.288;2023-03-01T14:55:36;12.40;74.00
27072;DHT22;14613;46.308;25.288;2023-03-01T14:58:04;12.50;73.90
27072;DHT22;14613;46.308;25.288;2023-03-01T15:00:32;12.40;73.70
27072;DHT22;14613;46.308;25.288;2023-03-01T15:03:07;12.40;73.80
27072;DHT22;14613;46.308;25.288;2023-03-01T15:05:35;12.30;73.70
27072;DHT22;14613;46.308;25.288;2023-03-01T15:08:03;12.20;73.70
27072;DHT22;14613;46.308;25.288;2023-03-01T15:10:34;12.20;73.90
27072;DHT22;14613;46.308;25.288;2023-03-01T15:13:22;12.20;74.00
27072;DHT22;14613;46.308;25.288;2023-03-01T15:15:50;12.10;74.10
27072;DHT22;14613;46.308;25.288;2023-03-01T15:18:20;12.10;73.90
27072;DHT22;14613;46.308;25.288;2023-03-01T15:20:48;12.10;73.90
27072;DHT22;14613;46.308;25.288;2023-03-01T15:23:26;12.00;74.00
27072;DHT22;14613;46.308;25.288;2023-03-01T15:25:53;12.00;74.10
27072;DHT22;14613;46.308;25.288;2023-03-01T15:28:33;12.00;74.30
27072;DHT22;14613;46.308;25.288;2023-03-01T15:31:13;12.00;74.30
27072;DHT22;14613;46.308;25.288;2023-03-01T15:33:43;12.00;74.30
27072;DHT22;14613;46.308;25.288;2023-03-01T15:39:04;12.00;74.30
27072;DHT22;14613;46.308;25.288;2023-03-01T15:41:51;12.00;74.20
27072;DHT22;14613;46.308;25.288;2023-03-01T15:44:32;11.90;74.20
27072;DHT22;14613;46.308;25.288;2023-03-01T15:46:58;11.90;74.20
27072;DHT22;14613;46.308;25.288;2023-03-01T15:49:39;11.80;74.10
27072;DHT22;14613;46.308;25.288;2023-03-01T15:52:21;11.70;74.20
27072;DHT22;14613;46.308;25.288;2023-03-01T15:54:58;11.70;74.30
27072;DHT22;14613;46.308;25.288;2023-03-01T15:57:24;11.70;74.40
27072;DHT22;14613;46.308;25.288;2023-03-01T15:59:50;11.70;74.40
27072;DHT22;14613;46.308;25.288;2023-03-01T16:02:16;11.80;74.60
27072;DHT22;14613;46.308;25.288;2023-03-01T16:04:41;11.70;74.40
27072;DHT22;14613;46.308;25.288;2023-03-01T16:07:09;11.80;74.50
27072;DHT22;14613;46.308;25.288;2023-03-01T16:09:35;11.70;74.50
27072;DHT22;14613;46.308;25.288;2023-03-01T16:12:01;11.70;74.50
27072;DHT22;14613;46.308;25.288;2023-03-01T16:14:27;11.80;74.60
27072;DHT22;14613;46.308;25.288;2023-03-01T16:16:53;11.70;74.60
27072;DHT22;14613;46.308;25.288;2023-03-01T16:19:19;11.70;74.70
27072;DHT22;14613;46.308;25.288;2023-03-01T16:21:45;11.70;74.70
27072;DHT22;14613;46.308;25.288;2023-03-01T16:24:13;11.60;74.70
27072;DHT22;14613;46.308;25.288;2023-03-01T16:26:39;11.60;74.70
27072;DHT22;14613;46.308;25.288;2023-03-01T16:29:05;11.60;74.80
27072;DHT22;14613;46.308;25.288;2023-03-01T16:31:31;11.60;74.90
27072;DHT22;14613;46.308;25.288;2023-03-01T16:33:58;11.50;74.90
27072;DHT22;14613;46.308;25.288;2023-03-01T16:36:25;11.50;75.00
27072;DHT22;14613;46.308;25.288;2023-03-01T16:38:52;11.50;75.00
27072;DHT22;14613;46.308;25.288;2023-03-01T16:41:20;11.50;75.00
27072;DHT22;14613;46.308;25.288;2023-03-01T16:43:46;11.50;75.00
27072;DHT22;14613;46.308;25.288;2023-03-01T16:46:14;11.40;75.10
27072;DHT22;14613;46.308;25.288;2023-03-01T16:48:40;11.40;75.20
27072;DHT22;14613;46.308;25.288;2023-03-01T16:51:07;11.40;75.20
27072;DHT22;14613;46.308;25.288;2023-03-01T16:53:34;11.40;75.20
27072;DHT22;14613;46.308;25.288;2023-03-01T16:56:03;11.40;75.20
27072;DHT22;14613;46.308;25.288;2023-03-01T16:58:29;11.30;75.10
27072;DHT22;14613;46.308;25.288;2023-03-01T17:00:55;11.30;75.00
27072;DHT22;14613;46.308;25.288;2023-03-01T17:03:25;11.30;75.10
27072;DHT22;14613;46.308;25.288;2023-03-01T17:05:54;11.20;75.20
27072;DHT22;14613;46.308;25.288;2023-03-01T17:08:20;11.20;75.30
27072;DHT22;14613;46.308;25.288;2023-03-01T17:10:46;11.20;75.50
27072;DHT22;14613;46.308;25.288;2023-03-01T17:13:12;11.20;75.50
27072;DHT22;14613;46.308;25.288;2023-03-01T17:15:39;11.20;75.50
27072;DHT22;14613;46.308;25.288;2023-03-01T17:18:06;11.20;75.50
27072;DHT22;14613;46.308;25.288;2023-03-01T17:20:32;11.20;75.60
27072;DHT22;14613;46.308;25.288;2023-03-01T17:22:57;11.20;75.60
27072;DHT22;14613;46.308;25.288;2023-03-01T17:25:24;11.20;75.60
27072;DHT22;14613;46.308;25.288;2023-03-01T17:27:49;11.10;75.60
27072;DHT22;14613;46.308;25.288;2023-03-01T17:30:15;11.10;75.60
27072;DHT22;14613;46.308;25.288;2023-03-01T17:32:41;11.10;75.70